Time;durP1;ratioP1;P1;durP2;ratioP2;P2;SDS_P1;SDS_P2;PMS_P1;PMS_P2;Temp;Humidity;BMP_temperature;BMP_pressure;BME280_temperature;BME280_humidity;BME280_pressure;Samples;Min_cycle;Max_cycle;Signal;HPM_P1;HPM_P2
2023/05/06 00:00:40;;;;;;;8.63;2.77;;;;;;;;;;6254075;28;20313;-74
2023/05/06 00:03:45;;;;;;;9.43;3.17;;;;;;;;;;6239055;28;20299;-75
2023/05/06 00:06:53;;;;;;;7.47;3.03;;;;;;;;;;6221775;28;20290;-74
2023/05/06 00:09:58;;;;;;;2.97;2.70;;;;;;;;;;6238490;28;20463;-75
2023/05/06 00:13:03;;;;;;;8.33;2.93;;;;;;;;;;6216934;28;20299;-74
2023/05/06 00:16:08;;;;;;;5.50;2.77;;;;;;;;;;6214981;28;20302;-74
2023/05/06 00:19:13;;;;;;;6.00;3.47;;;;;;;;;;6213964;28;20388;-75
2023/05/06 00:22:20;;;;;;;6.30;2.77;;;;;;;;;;6214239;28;20297;-75
2023/05/06 00:25:25;;;;;;;5.47;3.13;;;;;;;;;;6236238;28;20293;-75
2023/05/06 00:28:30;;;;;;;7.37;3.03;;;;;;;;;;6213926;28;20297;-74
2023/05/06 00:31:35;;;;;;;3.77;2.83;;;;;;;;;;6214509;28;20280;-74
2023/05/06 00:34:40;;;;;;;2.67;2.57;;;;;;;;;;6213335;28;20298;-75
2023/05/06 00:37:47;;;;;;;3.30;3.03;;;;;;;;;;6213710;28;20292;-75
2023/05/06 00:40:52;;;;;;;6.43;3.07;;;;;;;;;;6214373;28;20300;-73
2023/05/06 00:43:58;;;;;;;8.23;2.70;;;;;;;;;;6212978;28;20431;-74
2023/05/06 00:47:03;;;;;;;5.27;2.80;;;;;;;;;;6214545;28;20297;-74
2023/05/06 00:50:09;;;;;;;5.90;2.77;;;;;;;;;;6214021;28;20298;-74
2023/05/06 00:53:20;;;;;;;10.70;3.97;;;;;;;;;;6204083;28;20295;-74
2023/05/06 00:56:25;;;;;;;7.57;2.60;;;;;;;;;;6189767;28;20313;-74
2023/05/06 00:59:30;;;;;;;6.10;2.80;;;;;;;;;;6189093;28;20298;-76
2023/05/06 01:02:35;;;;;;;3.03;2.83;;;;;;;;;;6204526;28;20296;-75
2023/05/06 01:05:55;;;;;;;2.90;2.70;;;;;;;;;;6200075;28;20298;-74
2023/05/06 01:09:07;;;;;;;11.37;3.03;;;;;;;;;;6227662;28;20289;-74
2023/05/06 01:12:20;;;;;;;8.87;3.10;;;;;;;;;;6235892;28;20295;-75
2023/05/06 01:15:31;;;;;;;3.37;2.63;;;;;;;;;;6237489;28;20301;-74
2023/05/06 01:18:37;;;;;;;8.60;2.70;;;;;;;;;;6252579;28;20289;-74
2023/05/06 01:21:42;;;;;;;9.07;2.70;;;;;;;;;;6269310;28;20331;-75
2023/05/06 01:24:49;;;;;;;11.80;3.10;;;;;;;;;;6237725;28;20293;-74
2023/05/06 01:27:54;;;;;;;7.20;2.60;;;;;;;;;;6252527;28;20607;-73
2023/05/06 01:31:03;;;;;;;3.90;2.57;;;;;;;;;;6252554;28;20303;-75
2023/05/06 01:34:15;;;;;;;6.60;2.70;;;;;;;;;;6236496;28;20356;-73
2023/05/06 01:37:25;;;;;;;4.50;2.80;;;;;;;;;;6237870;28;20444;-75
2023/05/06 01:40:34;;;;;;;3.33;2.80;;;;;;;;;;6236808;28;20297;-74
2023/05/06 01:43:41;;;;;;;3.23;2.90;;;;;;;;;;6251585;28;20292;-75
2023/05/06 01:46:47;;;;;;;7.63;2.90;;;;;;;;;;6235091;28;20304;-74
2023/05/06 01:49:53;;;;;;;5.73;3.03;;;;;;;;;;6237112;28;20403;-74
2023/05/06 01:53:02;;;;;;;9.33;2.80;;;;;;;;;;6232482;28;20295;-74
2023/05/06 01:56:08;;;;;;;10.97;3.10;;;;;;;;;;6196187;28;20288;-75
2023/05/06 01:59:15;;;;;;;3.70;2.40;;;;;;;;;;6195796;28;20300;-74
2023/05/06 02:02:20;;;;;;;3.17;2.90;;;;;;;;;;6213576;28;20290;-74
2023/05/06 02:05:25;;;;;;;10.87;3.10;;;;;;;;;;6187697;28;20301;-73
2023/05/06 02:08:33;;;;;;;7.13;3.80;;;;;;;;;;6188003;28;20590;-74
2023/05/06 02:11:40;;;;;;;7.23;2.93;;;;;;;;;;6189861;28;20314;-75
2023/05/06 02:14:45;;;;;;;6.10;2.90;;;;;;;;;;6180087;28;20299;-74
2023/05/06 02:17:51;;;;;;;6.70;2.90;;;;;;;;;;6174424;28;20298;-74
2023/05/06 02:20:56;;;;;;;9.50;3.37;;;;;;;;;;6176945;28;20570;-74
2023/05/06 02:24:01;;;;;;;5.07;2.73;;;;;;;;;;6177040;28;20303;-74
2023/05/06 02:27:07;;;;;;;11.17;3.03;;;;;;;;;;6177714;28;20585;-75
2023/05/06 02:30:13;;;;;;;6.70;3.20;;;;;;;;;;6180802;28;20300;-75
2023/05/06 02:33:19;;;;;;;8.73;3.50;;;;;;;;;;6181504;28;20608;-75
2023/05/06 02:36:24;;;;;;;6.00;3.17;;;;;;;;;;6179554;28;20291;-74
2023/05/06 02:39:31;;;;;;;4.37;3.00;;;;;;;;;;6177494;28;20306;-75
2023/05/06 02:42:38;;;;;;;11.77;3.40;;;;;;;;;;6178076;28;20296;-75
2023/05/06 02:45:45;;;;;;;5.10;3.27;;;;;;;;;;6187436;28;20296;-74
2023/05/06 02:48:50;;;;;;;4.30;2.77;;;;;;;;;;6187419;28;20609;-73
2023/05/06 02:51:56;;;;;;;4.90;3.10;;;;;;;;;;6187279;28;20300;-74
2023/05/06 02:55:01;;;;;;;3.30;3.10;;;;;;;;;;6211234;28;20301;-73
2023/05/06 02:58:08;;;;;;;4.43;2.97;;;;;;;;;;6210677;28;20495;-75
2023/05/06 03:01:14;;;;;;;3.30;3.10;;;;;;;;;;6211249;28;20309;-74
2023/05/06 03:04:20;;;;;;;10.23;3.47;;;;;;;;;;6219344;28;20304;-74
2023/05/06 03:07:26;;;;;;;6.20;2.93;;;;;;;;;;6207876;28;20276;-75
2023/05/06 03:10:31;;;;;;;8.23;3.13;;;;;;;;;;6218733;28;20303;-74
2023/05/06 03:13:38;;;;;;;12.33;3.77;;;;;;;;;;6233789;28;20548;-75
2023/05/06 03:16:43;;;;;;;8.83;3.30;;;;;;;;;;6235478;28;20272;-74
2023/05/06 03:19:49;;;;;;;11.70;3.30;;;;;;;;;;6234892;28;20284;-75
2023/05/06 03:22:55;;;;;;;6.93;2.90;;;;;;;;;;6217909;28;20299;-74
2023/05/06 03:26:01;;;;;;;13.13;3.67;;;;;;;;;;6217362;28;20289;-74
2023/05/06 03:29:08;;;;;;;10.93;3.03;;;;;;;;;;6250069;28;20291;-74
2023/05/06 03:32:13;;;;;;;11.93;3.30;;;;;;;;;;6255312;28;20575;-75
2023/05/06 03:35:21;;;;;;;8.17;3.10;;;;;;;;;;6240592;28;20296;-74
2023/05/06 03:38:30;;;;;;;4.17;2.87;;;;;;;;;;6235230;28;20490;-73
2023/05/06 03:41:39;;;;;;;4.07;2.90;;;;;;;;;;6198585;28;20299;-75
2023/05/06 03:44:46;;;;;;;3.60;3.13;;;;;;;;;;6230184;28;20304;-75
2023/05/06 03:47:53;;;;;;;3.67;2.70;;;;;;;;;;6230669;28;20295;-74
2023/05/06 03:51:00;;;;;;;2.60;2.47;;;;;;;;;;6230105;28;20312;-74
2023/05/06 03:54:05;;;;;;;2.80;2.60;;;;;;;;;;6224119;28;20291;-74
2023/05/06 03:57:12;;;;;;;3.13;2.80;;;;;;;;;;6220363;28;20308;-74
2023/05/06 04:00:19;;;;;;;3.33;2.80;;;;;;;;;;6245005;28;20323;-74
2023/05/06 04:03:29;;;;;;;3.63;3.23;;;;;;;;;;6225883;28;20316;-74
2023/05/06 04:06:35;;;;;;;2.83;2.63;;;;;;;;;;6215770;28;20320;-74
2023/05/06 04:09:40;;;;;;;2.90;2.70;;;;;;;;;;6229716;28;20291;-74
2023/05/06 04:12:46;;;;;;;2.83;2.70;;;;;;;;;;6223515;28;20561;-74
2023/05/06 04:15:58;;;;;;;4.47;3.33;;;;;;;;;;6176919;28;20295;-74
2023/05/06 04:19:09;;;;;;;2.70;2.50;;;;;;;;;;6173108;28;20455;-73
2023/05/06 04:22:15;;;;;;;2.47;2.43;;;;;;;;;;6228175;28;20303;-74
2023/05/06 04:25:21;;;;;;;2.97;2.67;;;;;;;;;;6205755;28;20296;-75
2023/05/06 04:28:37;;;;;;;2.63;2.50;;;;;;;;;;6202653;28;20277;-74
2023/05/06 04:31:45;;;;;;;3.07;2.77;;;;;;;;;;6173028;28;20288;-74
2023/05/06 04:34:51;;;;;;;3.00;2.47;;;;;;;;;;6172889;28;20472;-74
2023/05/06 04:37:56;;;;;;;2.73;2.63;;;;;;;;;;6188720;28;20393;-74
2023/05/06 04:41:06;;;;;;;2.87;2.60;;;;;;;;;;6172227;28;20290;-74
2023/05/06 04:44:12;;;;;;;3.37;2.80;;;;;;;;;;6172564;28;20609;-74
2023/05/06 04:47:22;;;;;;;2.90;2.77;;;;;;;;;;6172826;28;20298;-74
2023/05/06 04:50:29;;;;;;;3.03;2.37;;;;;;;;;;6188219;28;20300;-74
2023/05/06 04:53:34;;;;;;;3.20;2.73;;;;;;;;;;6211248;28;20297;-74
2023/05/06 04:56:39;;;;;;;2.80;2.60;;;;;;;;;;6229687;28;20306;-74
2023/05/06 04:59:47;;;;;;;2.50;2.40;;;;;;;;;;6196821;28;20316;-74
2023/05/06 05:02:53;;;;;;;2.47;2.27;;;;;;;;;;6216052;28;20300;-73
2023/05/06 05:05:58;;;;;;;2.53;2.43;;;;;;;;;;6226636;28;20295;-74
2023/05/06 05:09:04;;;;;;;2.57;2.20;;;;;;;;;;6230903;28;20288;-74
2023/05/06 05:12:13;;;;;;;1.80;1.70;;;;;;;;;;6218485;28;20298;-75
2023/05/06 05:15:22;;;;;;;2.53;1.90;;;;;;;;;;6228060;28;20297;-74
2023/05/06 05:18:29;;;;;;;1.80;1.80;;;;;;;;;;6227991;28;20299;-75
2023/05/06 05:21:40;;;;;;;1.50;1.50;;;;;;;;;;6228479;28;20299;-74
2023/05/06 05:24:48;;;;;;;1.60;1.40;;;;;;;;;;6227898;28;20595;-74
2023/05/06 05:27:54;;;;;;;1.80;1.70;;;;;;;;;;6195556;28;20299;-74
2023/05/06 05:31:03;;;;;;;1.57;1.43;;;;;;;;;;6227767;28;20475;-74
2023/05/06 05:34:13;;;;;;;2.40;1.60;;;;;;;;;;6227312;28;20299;-74
2023/05/06 05:37:18;;;;;;;1.70;1.60;;;;;;;;;;6228158;28;20467;-74
2023/05/06 05:40:23;;;;;;;1.30;1.30;;;;;;;;;;6227172;28;20305;-74
2023/05/06 05:43:30;;;;;;;1.37;1.27;;;;;;;;;;6219019;28;20270;-73
2023/05/06 05:46:38;;;;;;;1.40;1.40;;;;;;;;;;6252320;28;20274;-74
2023/05/06 05:49:45;;;;;;;1.20;1.20;;;;;;;;;;6251719;28;20294;-74
2023/05/06 05:52:50;;;;;;;1.17;1.17;;;;;;;;;;6252271;28;20287;-74
2023/05/06 05:55:56;;;;;;;1.40;1.40;;;;;;;;;;6226581;28;20339;-74
2023/05/06 05:59:03;;;;;;;1.97;1.20;;;;;;;;;;6231776;28;20295;-74
2023/05/06 06:02:08;;;;;;;1.20;1.20;;;;;;;;;;6236603;28;20294;-74
2023/05/06 06:05:15;;;;;;;1.13;1.13;;;;;;;;;;6206926;28;20296;-74
2023/05/06 06:08:21;;;;;;;1.30;1.20;;;;;;;;;;6186768;28;20292;-74
2023/05/06 06:11:29;;;;;;;1.03;1.03;;;;;;;;;;6177433;28;20606;-75
2023/05/06 06:14:35;;;;;;;1.43;1.37;;;;;;;;;;6178583;28;20293;-74
2023/05/06 06:17:41;;;;;;;2.30;1.20;;;;;;;;;;6179057;28;20425;-74
2023/05/06 06:20:49;;;;;;;1.30;1.30;;;;;;;;;;6162258;28;20626;-74
2023/05/06 06:23:57;;;;;;;1.23;1.23;;;;;;;;;;6163526;28;20306;-73
2023/05/06 06:27:02;;;;;;;1.20;1.20;;;;;;;;;;6178606;28;20356;-74
2023/05/06 06:30:08;;;;;;;1.10;1.10;;;;;;;;;;6163770;28;20469;-73
2023/05/06 06:33:19;;;;;;;1.37;1.37;;;;;;;;;;6162260;29;20468;-74
2023/05/06 06:36:25;;;;;;;1.17;1.17;;;;;;;;;;6178031;28;20304;-74
2023/05/06 06:39:31;;;;;;;2.20;1.20;;;;;;;;;;6163371;28;20309;-75
2023/05/06 06:42:36;;;;;;;1.30;1.10;;;;;;;;;;6163772;28;20404;-74
2023/05/06 06:46:00;;;;;;;1.10;1.10;;;;;;;;;;6162750;28;20298;-73
2023/05/06 06:49:05;;;;;;;1.30;1.30;;;;;;;;;;6163183;28;20383;-75
2023/05/06 06:52:13;;;;;;;2.53;1.20;;;;;;;;;;6163517;28;20328;-74
2023/05/06 06:55:18;;;;;;;1.10;1.10;;;;;;;;;;6171247;28;20586;-75
2023/05/06 06:58:24;;;;;;;1.80;1.30;;;;;;;;;;6187580;28;20293;-74
2023/05/06 07:01:29;;;;;;;1.37;1.30;;;;;;;;;;6185683;28;20318;-74
2023/05/06 07:04:34;;;;;;;1.30;1.20;;;;;;;;;;6216235;28;20464;-73
2023/05/06 07:07:40;;;;;;;1.17;1.17;;;;;;;;;;6250879;28;20264;-74
2023/05/06 07:10:46;;;;;;;1.30;1.20;;;;;;;;;;6232103;28;20296;-72
2023/05/06 07:13:51;;;;;;;5.10;1.50;;;;;;;;;;6193380;28;20300;-75
2023/05/06 07:16:56;;;;;;;1.40;1.30;;;;;;;;;;6211449;28;20278;-75
2023/05/06 07:20:01;;;;;;;1.37;1.27;;;;;;;;;;6193987;28;20289;-75
2023/05/06 07:23:08;;;;;;;9.55;1.85;;;;;;;;;;6212101;28;20411;-77
2023/05/06 07:26:13;;;;;;;2.90;1.25;;;;;;;;;;6210932;28;20297;-73
2023/05/06 07:29:18;;;;;;;1.75;1.40;;;;;;;;;;6210502;28;20502;-74
2023/05/06 07:32:23;;;;;;;1.20;1.20;;;;;;;;;;6211217;28;20284;-75
2023/05/06 07:35:29;;;;;;;1.08;1.08;;;;;;;;;;6211088;28;20289;-74
2023/05/06 07:38:35;;;;;;;1.20;1.20;;;;;;;;;;6211368;28;20288;-75
2023/05/06 07:41:41;;;;;;;1.60;1.00;;;;;;;;;;6227007;28;20297;-75
2023/05/06 07:44:46;;;;;;;1.13;1.13;;;;;;;;;;6211471;28;20445;-75
2023/05/06 07:47:51;;;;;;;2.75;1.38;;;;;;;;;;6211298;28;20444;-74
2023/05/06 07:50:57;;;;;;;2.45;1.20;;;;;;;;;;6210845;28;20481;-75
2023/05/06 07:54:04;;;;;;;2.15;1.40;;;;;;;;;;6224012;28;20289;-74
2023/05/06 07:57:17;;;;;;;1.50;1.50;;;;;;;;;;6235376;28;20292;-75
2023/05/06 08:00:22;;;;;;;5.95;1.25;;;;;;;;;;6225952;28;20305;-75
2023/05/06 08:03:27;;;;;;;1.55;1.27;;;;;;;;;;6227756;28;20581;-75
2023/05/06 08:06:33;;;;;;;1.20;1.20;;;;;;;;;;6203688;28;20609;-77
2023/05/06 08:09:40;;;;;;;2.10;1.27;;;;;;;;;;6202895;28;20293;-75
2023/05/06 08:12:45;;;;;;;2.35;1.42;;;;;;;;;;6211650;28;20293;-74
2023/05/06 08:15:50;;;;;;;4.03;1.20;;;;;;;;;;6198361;28;20296;-74
2023/05/06 08:18:55;;;;;;;1.15;1.15;;;;;;;;;;6225706;28;20309;-74
2023/05/06 08:22:01;;;;;;;1.67;1.02;;;;;;;;;;6214408;28;20289;-75
2023/05/06 08:25:08;;;;;;;1.38;1.10;;;;;;;;;;6214437;28;20301;-74
2023/05/06 08:28:15;;;;;;;2.60;1.10;;;;;;;;;;6214499;28;20304;-74
2023/05/06 08:31:21;;;;;;;3.72;1.30;;;;;;;;;;6197320;28;20475;-76
2023/05/06 08:34:26;;;;;;;5.40;1.70;;;;;;;;;;6228321;28;20293;-74
2023/05/06 08:37:31;;;;;;;4.17;1.60;;;;;;;;;;6229945;28;20278;-74
2023/05/06 08:40:43;;;;;;;1.30;1.30;;;;;;;;;;6215261;28;20301;-76
2023/05/06 08:43:49;;;;;;;1.20;1.10;;;;;;;;;;6230997;28;20305;-76
2023/05/06 08:46:54;;;;;;;4.10;1.40;;;;;;;;;;6198432;28;20294;-77
2023/05/06 08:50:00;;;;;;;1.70;1.20;;;;;;;;;;6198489;28;20293;-77
2023/05/06 08:53:05;;;;;;;1.20;1.20;;;;;;;;;;6221799;28;20580;-76
2023/05/06 08:56:15;;;;;;;1.40;1.40;;;;;;;;;;6240902;28;20296;-77
2023/05/06 08:59:25;;;;;;;1.40;1.40;;;;;;;;;;6254298;28;20492;-76
2023/05/06 09:02:32;;;;;;;1.45;1.38;;;;;;;;;;6253554;28;20276;-75
2023/05/06 09:05:37;;;;;;;1.63;1.27;;;;;;;;;;6238231;28;20292;-73
2023/05/06 09:08:43;;;;;;;1.85;1.30;;;;;;;;;;6237304;28;20296;-72
2023/05/06 09:11:53;;;;;;;1.17;1.17;;;;;;;;;;6237858;28;20299;-74
2023/05/06 09:14:59;;;;;;;3.60;1.77;;;;;;;;;;6219928;28;20304;-75
2023/05/06 09:18:04;;;;;;;3.10;1.25;;;;;;;;;;6237881;28;20367;-78
2023/05/06 09:21:10;;;;;;;2.22;1.40;;;;;;;;;;6237356;28;20304;-76
2023/05/06 09:24:18;;;;;;;1.92;1.20;;;;;;;;;;6219765;28;20316;-74
2023/05/06 09:27:26;;;;;;;1.38;1.38;;;;;;;;;;6236991;28;20304;-75
2023/05/06 09:30:31;;;;;;;1.50;1.50;;;;;;;;;;6237124;28;20288;-74
2023/05/06 09:33:37;;;;;;;1.20;1.20;;;;;;;;;;6236271;28;20351;-75
2023/05/06 09:36:42;;;;;;;1.50;1.38;;;;;;;;;;6237200;28;20557;-77
2023/05/06 09:39:47;;;;;;;1.20;1.20;;;;;;;;;;6236398;28;20304;-76
2023/05/06 09:42:53;;;;;;;1.40;1.40;;;;;;;;;;6237395;28;20389;-77
2023/05/06 09:46:00;;;;;;;2.83;1.35;;;;;;;;;;6236785;28;20300;-78
2023/05/06 09:49:06;;;;;;;1.30;1.30;;;;;;;;;;6236990;28;20481;-78
2023/05/06 09:52:12;;;;;;;1.17;1.17;;;;;;;;;;6237345;28;20296;-77
2023/05/06 09:55:19;;;;;;;1.38;1.27;;;;;;;;;;6251344;28;20392;-71
2023/05/06 09:58:27;;;;;;;1.60;1.50;;;;;;;;;;6236552;28;20300;-73
2023/05/06 10:01:32;;;;;;;2.25;1.40;;;;;;;;;;6212804;28;20276;-77
2023/05/06 10:04:42;;;;;;;1.33;1.30;;;;;;;;;;6228471;28;20575;-77
2023/05/06 10:07:49;;;;;;;2.30;2.13;;;;;;;;;;6219199;28;20298;-74
2023/05/06 10:10:55;;;;;;;1.40;1.40;;;;;;;;;;6251038;28;20292;-75
2023/05/06 10:14:02;;;;;;;1.10;1.10;;;;;;;;;;6234872;28;20288;-74
2023/05/06 10:17:09;;;;;;;1.40;1.40;;;;;;;;;;6236087;28;20296;-75
2023/05/06 10:20:15;;;;;;;9.85;2.35;;;;;;;;;;6235063;28;20280;-75
2023/05/06 10:23:25;;;;;;;2.03;1.60;;;;;;;;;;6236084;28;20464;-76
2023/05/06 10:26:31;;;;;;;1.35;1.27;;;;;;;;;;6235236;28;20300;-74
2023/05/06 10:29:38;;;;;;;2.20;1.38;;;;;;;;;;6235543;28;20469;-75
2023/05/06 10:32:44;;;;;;;1.50;1.40;;;;;;;;;;6235827;28;20296;-76
2023/05/06 10:35:53;;;;;;;3.15;1.33;;;;;;;;;;6235129;28;20311;-75
2023/05/06 10:39:00;;;;;;;1.95;1.38;;;;;;;;;;6234871;28;20528;-75
2023/05/06 10:42:06;;;;;;;3.85;1.40;;;;;;;;;;6235522;28;20300;-76
2023/05/06 10:45:15;;;;;;;1.40;1.40;;;;;;;;;;6235352;28;20301;-74
2023/05/06 10:48:20;;;;;;;1.63;1.52;;;;;;;;;;6235976;28;20292;-75
2023/05/06 10:51:27;;;;;;;4.93;1.50;;;;;;;;;;6217827;28;20292;-75
2023/05/06 10:54:32;;;;;;;1.55;1.42;;;;;;;;;;6234767;28;20289;-75
2023/05/06 10:57:41;;;;;;;1.58;1.40;;;;;;;;;;6235459;28;20364;-75
2023/05/06 11:00:54;;;;;;;3.90;1.40;;;;;;;;;;6234501;28;20316;-73
2023/05/06 11:04:06;;;;;;;1.33;1.33;;;;;;;;;;6225496;28;20293;-74
2023/05/06 11:07:13;;;;;;;1.85;1.45;;;;;;;;;;6234022;28;20317;-75
2023/05/06 11:10:32;;;;;;;2.03;1.40;;;;;;;;;;6234655;28;20291;-75
2023/05/06 11:13:37;;;;;;;2.05;1.40;;;;;;;;;;6209829;28;20273;-75
2023/05/06 11:16:50;;;;;;;1.58;1.35;;;;;;;;;;6211118;28;20293;-75
2023/05/06 11:20:19;;;;;;;2.72;1.25;;;;;;;;;;6210448;28;20305;-74
2023/05/06 11:24:02;;;;;;;2.22;1.50;;;;;;;;;;6209396;28;20288;-75
2023/05/06 11:27:08;;;;;;;1.40;1.40;;;;;;;;;;6202723;28;20305;-76
2023/05/06 11:30:16;;;;;;;1.30;1.27;;;;;;;;;;6193358;28;20296;-75
2023/05/06 11:33:23;;;;;;;1.70;1.70;;;;;;;;;;6210776;28;20293;-74
2023/05/06 11:36:28;;;;;;;1.83;1.30;;;;;;;;;;6226579;28;20332;-75
2023/05/06 11:39:34;;;;;;;1.98;1.10;;;;;;;;;;6234888;28;20300;-76
2023/05/06 11:42:44;;;;;;;1.48;1.38;;;;;;;;;;6217819;28;20292;-75
2023/05/06 11:45:49;;;;;;;2.22;1.70;;;;;;;;;;6234606;28;20300;-75
2023/05/06 11:48:56;;;;;;;2.47;1.20;;;;;;;;;;6235030;28;20616;-75
2023/05/06 11:52:02;;;;;;;8.57;1.48;;;;;;;;;;6239256;28;20296;-75
2023/05/06 11:55:09;;;;;;;1.90;1.80;;;;;;;;;;6238248;28;20511;-74
2023/05/06 11:58:16;;;;;;;4.43;1.50;;;;;;;;;;6239715;28;20292;-76
2023/05/06 12:01:21;;;;;;;2.17;1.38;;;;;;;;;;6238052;28;20300;-75
2023/05/06 12:04:28;;;;;;;7.40;1.80;;;;;;;;;;6221198;28;20288;-74
2023/05/06 12:07:33;;;;;;;5.88;2.42;;;;;;;;;;6222247;28;20269;-75
2023/05/06 12:10:39;;;;;;;3.28;1.45;;;;;;;;;;6223147;28;20296;-77
2023/05/06 12:13:45;;;;;;;4.30;1.77;;;;;;;;;;6239163;28;20312;-76
2023/05/06 12:16:50;;;;;;;3.03;1.50;;;;;;;;;;6239266;28;20305;-75
2023/05/06 12:19:59;;;;;;;1.50;1.40;;;;;;;;;;6239460;28;20567;-75
2023/05/06 12:23:08;;;;;;;1.88;1.60;;;;;;;;;;6238891;28;20292;-77
2023/05/06 12:26:13;;;;;;;2.67;1.58;;;;;;;;;;6239118;28;20500;-76
2023/05/06 12:29:19;;;;;;;5.82;1.30;;;;;;;;;;6238463;28;20460;-75
2023/05/06 12:32:24;;;;;;;1.70;1.50;;;;;;;;;;6239282;28;20293;-77
2023/05/06 12:35:32;;;;;;;1.30;1.30;;;;;;;;;;6238285;28;20467;-74
2023/05/06 12:38:37;;;;;;;1.63;1.52;;;;;;;;;;6238530;28;20284;-75
2023/05/06 12:41:43;;;;;;;3.22;1.55;;;;;;;;;;6238536;28;20300;-75
2023/05/06 12:44:48;;;;;;;1.10;1.10;;;;;;;;;;6238208;28;20296;-74
2023/05/06 12:47:54;;;;;;;1.95;1.40;;;;;;;;;;6229283;28;20321;-76
2023/05/06 12:51:01;;;;;;;1.27;1.20;;;;;;;;;;6234329;28;20472;-75
2023/05/06 12:54:29;;;;;;;2.30;1.45;;;;;;;;;;6238177;28;20284;-74
2023/05/06 12:57:34;;;;;;;1.58;1.48;;;;;;;;;;6237144;28;20288;-74
2023/05/06 13:00:39;;;;;;;1.55;1.42;;;;;;;;;;6237821;28;20585;-75
2023/05/06 13:03:44;;;;;;;1.75;1.63;;;;;;;;;;6236622;28;20304;-76
2023/05/06 13:06:52;;;;;;;1.55;1.45;;;;;;;;;;6222166;28;20296;-77
2023/05/06 13:09:57;;;;;;;1.77;1.40;;;;;;;;;;6238139;28;20300;-75
2023/05/06 13:13:02;;;;;;;1.20;1.20;;;;;;;;;;6238510;28;20296;-75
2023/05/06 13:16:09;;;;;;;7.60;2.60;;;;;;;;;;6237827;28;20304;-76
2023/05/06 13:19:14;;;;;;;7.18;1.80;;;;;;;;;;6237450;28;20297;-77
2023/05/06 13:22:37;;;;;;;4.40;1.63;;;;;;;;;;6237112;28;20264;-79
2023/05/06 13:26:12;;;;;;;2.13;2.00;;;;;;;;;;6259978;28;20288;-72
2023/05/06 13:29:18;;;;;;;1.58;1.50;;;;;;;;;;6268688;28;20296;-73
2023/05/06 13:32:24;;;;;;;5.97;2.20;;;;;;;;;;6237910;28;20304;-73
2023/05/06 13:35:29;;;;;;;4.60;1.95;;;;;;;;;;6252361;28;20568;-75
2023/05/06 13:38:36;;;;;;;2.35;1.65;;;;;;;;;;6237173;28;20315;-77
2023/05/06 13:41:41;;;;;;;1.55;1.55;;;;;;;;;;6237500;28;20304;-77
2023/05/06 13:44:46;;;;;;;2.38;1.85;;;;;;;;;;6236664;28;20296;-75
2023/05/06 13:47:51;;;;;;;1.52;1.42;;;;;;;;;;6236884;28;20312;-76
2023/05/06 13:50:57;;;;;;;2.38;1.20;;;;;;;;;;6237040;28;20293;-76
2023/05/06 13:54:04;;;;;;;1.35;1.25;;;;;;;;;;6223328;28;20297;-75
2023/05/06 13:57:10;;;;;;;3.85;1.40;;;;;;;;;;6213023;28;20293;-75
2023/05/06 14:00:16;;;;;;;1.80;1.70;;;;;;;;;;6212616;28;20297;-75
2023/05/06 14:03:21;;;;;;;2.50;1.52;;;;;;;;;;6211842;28;20301;-75
2023/05/06 14:06:26;;;;;;;2.28;2.08;;;;;;;;;;6212080;28;20589;-77
2023/05/06 14:09:33;;;;;;;3.22;3.13;;;;;;;;;;6212003;28;20605;-76
2023/05/06 14:12:38;;;;;;;1.70;1.60;;;;;;;;;;6231046;28;20486;-75
2023/05/06 14:15:43;;;;;;;7.60;2.00;;;;;;;;;;6235040;28;20296;-75
2023/05/06 14:18:48;;;;;;;2.05;2.03;;;;;;;;;;6235764;28;20392;-76
2023/05/06 14:21:54;;;;;;;9.90;6.57;;;;;;;;;;6236926;28;20299;-75
2023/05/06 14:25:01;;;;;;;9.25;5.68;;;;;;;;;;6235840;28;20613;-75
2023/05/06 14:28:06;;;;;;;5.30;4.97;;;;;;;;;;6236280;28;20311;-73
2023/05/06 14:31:12;;;;;;;4.82;2.20;;;;;;;;;;6235920;28;20292;-74
2023/05/06 14:34:18;;;;;;;1.38;1.23;;;;;;;;;;6236008;28;20287;-75
2023/05/06 14:37:23;;;;;;;2.08;1.60;;;;;;;;;;6194357;28;20297;-74
2023/05/06 14:40:30;;;;;;;4.75;1.50;;;;;;;;;;6226828;28;20300;-76
2023/05/06 14:43:35;;;;;;;1.20;1.20;;;;;;;;;;6234920;28;20264;-76
2023/05/06 14:46:40;;;;;;;9.02;1.92;;;;;;;;;;6238803;28;20268;-76
2023/05/06 14:49:45;;;;;;;2.20;2.00;;;;;;;;;;6236550;28;20291;-75
2023/05/06 14:52:52;;;;;;;5.72;2.85;;;;;;;;;;6229563;28;20293;-76
2023/05/06 14:55:59;;;;;;;2.45;1.50;;;;;;;;;;6222088;28;20305;-75
2023/05/06 14:59:04;;;;;;;3.22;2.95;;;;;;;;;;6238072;28;20296;-77
2023/05/06 15:02:11;;;;;;;2.38;2.10;;;;;;;;;;6236393;28;20288;-77
2023/05/06 15:05:16;;;;;;;1.30;1.30;;;;;;;;;;6235210;28;20580;-77
2023/05/06 15:08:21;;;;;;;4.90;4.43;;;;;;;;;;6235468;28;20295;-75
2023/05/06 15:11:27;;;;;;;2.17;1.67;;;;;;;;;;6234953;28;20308;-76
2023/05/06 15:14:33;;;;;;;7.88;1.50;;;;;;;;;;6217373;28;20292;-76
2023/05/06 15:17:40;;;;;;;1.50;1.50;;;;;;;;;;6235426;28;20289;-76
2023/05/06 15:20:45;;;;;;;5.63;1.70;;;;;;;;;;6235131;28;20293;-75
2023/05/06 15:23:50;;;;;;;1.20;1.20;;;;;;;;;;6234420;28;20450;-77
2023/05/06 15:26:57;;;;;;;1.40;1.30;;;;;;;;;;6238126;28;20304;-76
2023/05/06 15:30:03;;;;;;;2.22;1.33;;;;;;;;;;6239869;28;20299;-77
2023/05/06 15:33:08;;;;;;;1.73;1.70;;;;;;;;;;6240429;28;20296;-77
2023/05/06 15:36:14;;;;;;;2.45;1.73;;;;;;;;;;6239958;28;20301;-76
2023/05/06 15:39:19;;;;;;;1.58;1.33;;;;;;;;;;6239929;28;20296;-76
2023/05/06 15:42:26;;;;;;;1.48;1.33;;;;;;;;;;6240055;28;20488;-76
2023/05/06 15:45:31;;;;;;;2.55;1.35;;;;;;;;;;6239788;28;20300;-77
2023/05/06 15:48:36;;;;;;;2.50;1.40;;;;;;;;;;6240203;28;20292;-76
2023/05/06 15:51:41;;;;;;;1.90;1.73;;;;;;;;;;6241702;28;20297;-77
2023/05/06 15:54:46;;;;;;;1.48;1.40;;;;;;;;;;6240868;28;20301;-76
2023/05/06 15:57:55;;;;;;;2.55;1.60;;;;;;;;;;6240480;28;20592;-76
2023/05/06 16:01:04;;;;;;;4.38;1.60;;;;;;;;;;6239508;28;20292;-77
2023/05/06 16:04:10;;;;;;;1.33;1.33;;;;;;;;;;6238979;28;20302;-77
2023/05/06 16:07:15;;;;;;;4.00;1.63;;;;;;;;;;6240276;28;20304;-76
2023/05/06 16:10:21;;;;;;;2.33;1.77;;;;;;;;;;6239429;28;20304;-77
2023/05/06 16:13:27;;;;;;;3.05;2.85;;;;;;;;;;6203628;28;20282;-77
2023/05/06 16:16:32;;;;;;;5.38;1.92;;;;;;;;;;6189930;28;20310;-76
2023/05/06 16:19:38;;;;;;;2.25;1.80;;;;;;;;;;6190048;28;20302;-77
2023/05/06 16:22:48;;;;;;;4.97;4.28;;;;;;;;;;6190870;28;20285;-76
2023/05/06 16:25:54;;;;;;;2.72;2.40;;;;;;;;;;6190166;28;20289;-77
2023/05/06 16:29:00;;;;;;;2.78;2.65;;;;;;;;;;6189884;28;20293;-76
2023/05/06 16:32:05;;;;;;;4.70;3.60;;;;;;;;;;6190181;28;20281;-77
2023/05/06 16:35:12;;;;;;;1.92;1.92;;;;;;;;;;6190005;28;20293;-76
2023/05/06 16:38:17;;;;;;;1.52;1.52;;;;;;;;;;6189230;28;20289;-76
2023/05/06 16:41:22;;;;;;;1.80;1.80;;;;;;;;;;6197562;28;20293;-76
2023/05/06 16:44:29;;;;;;;1.63;1.60;;;;;;;;;;6206288;28;20290;-77
2023/05/06 16:47:34;;;;;;;2.50;1.80;;;;;;;;;;6173097;28;20293;-76
2023/05/06 16:50:40;;;;;;;11.00;2.00;;;;;;;;;;6190254;28;20297;-76
2023/05/06 16:53:45;;;;;;;1.58;1.50;;;;;;;;;;6213906;28;20296;-77
2023/05/06 16:56:50;;;;;;;1.63;1.50;;;;;;;;;;6238691;28;20293;-77
2023/05/06 16:59:58;;;;;;;1.65;1.58;;;;;;;;;;6237573;28;20300;-77
2023/05/06 17:03:04;;;;;;;1.50;1.50;;;;;;;;;;6237866;28;20580;-77
2023/05/06 17:06:11;;;;;;;1.80;1.80;;;;;;;;;;6233274;28;20430;-76
2023/05/06 17:09:17;;;;;;;1.95;1.85;;;;;;;;;;6237624;28;20291;-77
2023/05/06 17:12:22;;;;;;;5.30;5.00;;;;;;;;;;6237882;28;20296;-77
2023/05/06 17:15:29;;;;;;;1.60;1.50;;;;;;;;;;6236273;28;20292;-76
2023/05/06 17:18:34;;;;;;;1.38;1.35;;;;;;;;;;6237397;28;20288;-76
2023/05/06 17:21:39;;;;;;;2.72;1.70;;;;;;;;;;6236885;28;20300;-77
2023/05/06 17:24:44;;;;;;;3.90;1.55;;;;;;;;;;6237666;28;20348;-76
2023/05/06 17:27:49;;;;;;;4.57;1.92;;;;;;;;;;6238079;28;20300;-76
2023/05/06 17:30:56;;;;;;;2.25;1.98;;;;;;;;;;6236821;28;20300;-77
2023/05/06 17:34:02;;;;;;;1.90;1.80;;;;;;;;;;6237154;28;20288;-76
2023/05/06 17:37:07;;;;;;;1.90;1.80;;;;;;;;;;6237708;28;20296;-76
2023/05/06 17:40:14;;;;;;;2.17;1.73;;;;;;;;;;6235767;28;20477;-77
2023/05/06 17:43:19;;;;;;;1.98;1.73;;;;;;;;;;6237237;28;20288;-77
2023/05/06 17:46:25;;;;;;;1.77;1.73;;;;;;;;;;6212798;28;20308;-77
2023/05/06 17:49:33;;;;;;;2.60;1.98;;;;;;;;;;6226710;28;20598;-77
2023/05/06 17:52:39;;;;;;;2.78;2.20;;;;;;;;;;6214433;28;20258;-76
2023/05/06 17:55:47;;;;;;;2.92;2.83;;;;;;;;;;6236211;28;20225;-76
2023/05/06 17:58:53;;;;;;;2.00;1.90;;;;;;;;;;6237212;28;20288;-78
2023/05/06 18:02:01;;;;;;;2.00;1.80;;;;;;;;;;6251347;28;20292;-77
2023/05/06 18:05:09;;;;;;;1.90;1.80;;;;;;;;;;6202467;28;20298;-78
2023/05/06 18:08:15;;;;;;;2.75;2.50;;;;;;;;;;6187388;28;20577;-77
2023/05/06 18:11:20;;;;;;;4.10;2.00;;;;;;;;;;6188388;28;20587;-77
2023/05/06 18:14:25;;;;;;;2.10;2.08;;;;;;;;;;6187988;28;20293;-76
2023/05/06 18:17:32;;;;;;;4.63;1.75;;;;;;;;;;6188224;28;20298;-77
2023/05/06 18:20:38;;;;;;;3.15;2.00;;;;;;;;;;6187913;28;20305;-76
2023/05/06 18:23:44;;;;;;;1.52;1.52;;;;;;;;;;6187292;28;20377;-77
2023/05/06 18:26:49;;;;;;;1.73;1.73;;;;;;;;;;6188523;28;20573;-77
2023/05/06 18:29:54;;;;;;;1.60;1.50;;;;;;;;;;6188109;28;20311;-78
2023/05/06 18:33:01;;;;;;;1.57;1.47;;;;;;;;;;6203387;28;20297;-77
2023/05/06 18:36:07;;;;;;;2.53;1.70;;;;;;;;;;6187804;28;20297;-76
2023/05/06 18:39:12;;;;;;;1.73;1.52;;;;;;;;;;6187726;28;20395;-78